createdAt,value
2022-08-05T05:31:20.685Z,3.80
2022-08-05T05:33:59.203Z,3.85
2022-08-05T05:36:29.965Z,3.22
2022-08-05T05:38:57.754Z,3.15
2022-08-05T05:41:24.696Z,2.92
2022-08-05T05:43:58.051Z,2.83
2022-08-05T05:46:27.543Z,3.00
2022-08-05T05:48:54.264Z,2.70
2022-08-05T05:51:25.675Z,25.75
2022-08-05T05:53:58.992Z,7.93
2022-08-05T05:56:34.541Z,5.73
2022-08-05T05:59:05.333Z,4.13
2022-08-05T06:01:37.783Z,3.63
2022-08-05T06:04:12.055Z,2.67
2022-08-05T06:06:42.687Z,2.80
2022-08-05T06:09:17.287Z,2.70
2022-08-05T06:12:01.120Z,2.50
2022-08-05T06:14:33.368Z,2.45
2022-08-05T06:17:22.597Z,2.47
2022-08-05T06:19:56.701Z,2.25
2022-08-05T06:22:33.781Z,2.33
2022-08-05T06:25:25.223Z,2.47
2022-08-05T06:28:09.226Z,2.50
2022-08-05T06:30:36.065Z,2.15
2022-08-05T06:33:02.922Z,2.97
2022-08-05T06:36:07.270Z,2.30
2022-08-05T06:38:16.502Z,2.30
2022-08-05T06:40:44.780Z,2.67
2022-08-05T06:43:58.072Z,2.50
2022-08-05T06:46:03.563Z,2.42
2022-08-05T06:48:50.249Z,2.40
2022-08-05T06:51:29.380Z,2.70
2022-08-05T06:54:01.917Z,2.83
2022-08-05T06:56:34.133Z,3.25
2022-08-05T06:59:03.765Z,2.90
2022-08-05T07:01:36.076Z,2.97
2022-08-05T07:04:03.793Z,3.15
2022-08-05T07:06:30.614Z,2.50
2022-08-05T07:09:00.017Z,2.60
2022-08-05T07:11:32.606Z,2.83
2022-08-05T07:14:29.235Z,3.10
2022-08-05T07:18:01.836Z,2.90
2022-08-05T07:20:34.044Z,3.05
2022-08-05T07:22:37.458Z,2.60
2022-08-05T07:25:22.046Z,3.10
2022-08-05T07:27:57.421Z,2.70
2022-08-05T07:30:39.886Z,2.28
2022-08-05T07:33:15.980Z,2.60
2022-08-05T07:36:03.943Z,3.03
2022-08-05T07:38:43.315Z,3.00
2022-08-05T07:42:14.288Z,2.60
2022-08-05T07:44:18.758Z,2.65
2022-08-05T07:46:49.267Z,3.10
2022-08-05T07:49:18.310Z,2.70
2022-08-05T07:51:53.290Z,2.30
2022-08-05T07:54:31.744Z,2.40
2022-08-05T07:57:22.883Z,2.25
2022-08-05T07:59:49.440Z,2.47
2022-08-05T08:02:18.038Z,2.60
2022-08-05T08:04:47.202Z,2.50
2022-08-05T08:07:22.057Z,2.40
2022-08-05T08:09:49.872Z,2.55
2022-08-05T08:12:35.210Z,2.30
2022-08-05T08:15:15.124Z,2.42
2022-08-05T08:17:50.751Z,2.45
2022-08-05T08:20:45.381Z,2.30
2022-08-05T08:24:01.044Z,2.47
2022-08-05T08:26:00.048Z,2.70
2022-08-05T08:28:37.035Z,2.00
2022-08-05T08:31:17.618Z,2.45
2022-08-05T08:33:45.888Z,2.80
2022-08-05T08:36:38.384Z,2.55
2022-08-05T08:39:07.115Z,2.38
2022-08-05T08:41:52.626Z,2.80
2022-08-05T08:45:20.091Z,2.80
2022-08-05T08:47:21.646Z,2.70
2022-08-05T08:50:30.694Z,2.35
2022-08-05T08:53:00.838Z,2.50
2022-08-05T08:55:32.200Z,2.90
2022-08-05T08:58:17.076Z,2.67
2022-08-05T09:00:44.541Z,2.33
2022-08-05T09:03:11.885Z,2.80
2022-08-05T09:06:08.136Z,2.50
2022-08-05T09:08:30.449Z,2.70
2022-08-05T09:10:58.263Z,2.65
2022-08-05T09:13:31.364Z,2.70
2022-08-05T09:16:00.143Z,2.70
2022-08-05T09:18:28.183Z,2.83
2022-08-05T09:20:56.586Z,2.60
2022-08-05T09:23:28.941Z,2.75
2022-08-05T09:26:20.844Z,2.40
2022-08-05T09:28:49.405Z,2.85
2022-08-05T09:31:44.060Z,2.78
2022-08-05T09:34:06.730Z,2.53
2022-08-05T09:36:55.974Z,2.40
2022-08-05T09:39:39.196Z,2.90
2022-08-05T09:42:23.144Z,2.53
2022-08-05T09:44:56.955Z,2.70
2022-08-05T09:47:34.933Z,2.35
2022-08-05T09:50:18.136Z,2.30
2022-08-05T09:53:01.142Z,2.00
2022-08-05T09:55:56.714Z,2.30
2022-08-05T09:58:22.797Z,2.22
2022-08-05T10:00:55.183Z,2.20
2022-08-05T10:03:22.698Z,3.30
2022-08-05T10:06:14.799Z,2.43
2022-08-05T10:08:42.946Z,2.35
2022-08-05T10:11:18.092Z,2.75
2022-08-05T10:13:47.631Z,2.40
2022-08-05T10:16:34.286Z,2.40
2022-08-05T10:19:10.141Z,2.40
2022-08-05T10:21:40.010Z,2.50
2022-08-05T10:24:10.738Z,2.40
2022-08-05T10:26:48.983Z,2.10
2022-08-05T10:29:23.541Z,2.40
2022-08-05T10:32:53.843Z,2.30
2022-08-05T10:34:40.889Z,2.05
2022-08-05T10:37:08.224Z,2.15
2022-08-05T10:40:03.196Z,2.42
2022-08-05T10:42:33.512Z,2.30
2022-08-05T10:45:01.866Z,2.50
2022-08-05T10:47:56.175Z,2.53
2022-08-05T10:50:37.143Z,2.42
2022-08-05T10:53:04.194Z,2.70
2022-08-05T10:55:38.716Z,2.85
2022-08-05T10:58:20.591Z,2.40
2022-08-05T11:00:48.472Z,2.90
2022-08-05T11:03:26.951Z,3.00
2022-08-05T11:06:03.985Z,2.90
2022-08-05T11:08:37.318Z,3.20
2022-08-05T11:11:44.260Z,3.00
2022-08-05T11:14:57.628Z,3.10
2022-08-05T11:17:59.624Z,2.92
2022-08-05T11:20:45.231Z,3.30
2022-08-05T11:23:33.255Z,3.00
2022-08-05T11:26:28.772Z,3.30
2022-08-05T11:29:11.665Z,3.30
2022-08-05T11:31:58.242Z,3.10
2022-08-05T11:34:47.459Z,3.47
2022-08-05T11:38:29.410Z,3.33
2022-08-05T11:41:01.022Z,2.80
2022-08-05T11:44:04.419Z,2.97
2022-08-05T11:46:32.389Z,3.30
2022-08-05T11:49:01.374Z,3.17
2022-08-05T11:51:44.596Z,3.25
2022-08-05T11:54:33.989Z,2.90
2022-08-05T11:57:08.132Z,2.80
2022-08-05T11:59:51.589Z,2.70
2022-08-05T12:02:30.935Z,3.20
2022-08-05T12:05:07.042Z,2.92
2022-08-05T12:08:08.420Z,2.77
2022-08-05T12:10:43.231Z,2.80
2022-08-05T12:13:16.955Z,3.10
2022-08-05T12:15:50.159Z,2.70
2022-08-05T12:18:19.034Z,2.90
2022-08-05T12:20:47.665Z,2.90
2022-08-05T12:23:14.529Z,2.88
2022-08-05T12:25:56.955Z,2.60
2022-08-05T12:28:34.918Z,3.25
2022-08-05T12:31:04.678Z,3.10
2022-08-05T12:33:36.377Z,2.70
2022-08-05T12:36:08.026Z,2.70
2022-08-05T12:38:39.760Z,3.08
2022-08-05T12:41:12.963Z,3.40
2022-08-05T12:43:56.736Z,3.13
2022-08-05T12:46:29.381Z,3.20
2022-08-05T12:49:13.108Z,2.97
2022-08-05T12:52:14.394Z,3.15
2022-08-05T12:54:32.496Z,2.97
2022-08-05T12:57:09.543Z,2.90
2022-08-05T12:59:46.632Z,2.80
2022-08-05T13:02:30.890Z,3.53
2022-08-05T13:04:58.024Z,3.40
2022-08-05T13:07:57.464Z,2.70
2022-08-05T13:10:19.579Z,2.70
2022-08-05T13:12:57.147Z,2.70
2022-08-05T13:15:41.695Z,2.80
2022-08-05T13:18:20.865Z,2.80
2022-08-05T13:20:49.916Z,3.08
2022-08-05T13:23:22.040Z,3.38
2022-08-05T13:25:59.171Z,2.80
2022-08-05T13:28:27.939Z,3.45
2022-08-05T13:30:55.815Z,3.05
2022-08-05T13:34:21.798Z,3.30
2022-08-05T13:36:14.493Z,3.20
2022-08-05T13:38:42.656Z,2.80
2022-08-05T13:41:12.858Z,3.20
2022-08-05T13:43:45.165Z,3.15
2022-08-05T13:46:37.641Z,3.00
2022-08-05T13:49:10.182Z,2.60
2022-08-05T13:51:40.986Z,3.60
2022-08-05T13:54:15.059Z,3.08
2022-08-05T13:56:50.471Z,2.97
2022-08-05T13:59:26.816Z,2.70
2022-08-05T14:01:59.424Z,3.15
2022-08-05T14:04:53.146Z,3.03
2022-08-05T14:07:56.477Z,3.10
2022-08-05T14:10:18.423Z,2.88
2022-08-05T14:12:48.431Z,3.60
2022-08-05T14:16:06.162Z,3.30
2022-08-05T14:18:04.651Z,3.50
2022-08-05T14:20:31.719Z,3.17
2022-08-05T14:22:59.761Z,2.90
2022-08-05T14:25:27.971Z,2.97
2022-08-05T14:27:56.277Z,2.88
2022-08-05T14:30:26.669Z,3.13
2022-08-05T14:32:56.948Z,3.45
2022-08-05T14:35:50.060Z,3.20
2022-08-05T14:38:32.760Z,3.17
2022-08-05T14:40:58.680Z,3.00
2022-08-05T14:43:59.036Z,3.27
2022-08-05T14:46:12.412Z,3.13
2022-08-05T14:48:40.103Z,3.50
2022-08-05T14:51:08.511Z,3.40
2022-08-05T14:53:44.081Z,3.45
2022-08-05T14:56:13.449Z,2.93
2022-08-05T14:58:47.906Z,3.00
2022-08-05T15:01:47.130Z,3.35
2022-08-05T15:04:11.385Z,3.10
2022-08-05T15:06:40.426Z,2.80
2022-08-05T15:09:07.954Z,3.27
2022-08-05T15:11:52.462Z,3.00
2022-08-05T15:14:34.546Z,2.88
2022-08-05T15:17:05.079Z,3.25
2022-08-05T15:19:37.110Z,3.00
2022-08-05T15:22:08.750Z,3.40
2022-08-05T15:24:35.888Z,3.20
2022-08-05T15:27:09.056Z,3.15
2022-08-05T15:29:42.045Z,3.38
2022-08-05T15:32:09.742Z,3.13
2022-08-05T15:34:37.020Z,3.13
2022-08-05T15:37:06.842Z,3.22
2022-08-05T15:41:03.710Z,3.40
2022-08-05T15:42:54.770Z,3.00
2022-08-05T15:45:16.660Z,3.10
2022-08-05T15:47:46.834Z,3.17
2022-08-05T15:50:15.454Z,2.97
2022-08-05T15:52:52.831Z,3.15
2022-08-05T15:55:25.138Z,3.17
2022-08-05T15:58:16.381Z,3.17
2022-08-05T16:01:03.346Z,3.33
2022-08-05T16:03:33.828Z,2.80
2022-08-05T16:06:01.406Z,2.60
2022-08-05T16:08:30.658Z,3.42
2022-08-05T16:10:58.812Z,3.08
2022-08-05T16:13:34.359Z,2.90
2022-08-05T16:16:03.919Z,3.13
2022-08-05T16:18:33.224Z,3.83
2022-08-05T16:21:04.151Z,3.70
2022-08-05T16:23:33.024Z,3.65
2022-08-05T16:26:20.103Z,3.23
2022-08-05T16:28:56.125Z,3.28
2022-08-05T16:31:22.865Z,3.50
2022-08-05T16:33:52.155Z,3.50
2022-08-05T16:36:23.827Z,3.10
2022-08-05T16:38:54.704Z,3.20
2022-08-05T16:42:14.484Z,2.60
2022-08-05T16:44:10.995Z,3.25
2022-08-05T16:46:41.159Z,3.25
2022-08-05T16:49:09.189Z,3.45
2022-08-05T16:51:42.726Z,3.37
2022-08-05T16:54:25.739Z,3.70
2022-08-05T16:56:54.114Z,3.50
2022-08-05T16:59:20.962Z,3.50
2022-08-05T17:01:53.802Z,3.67
2022-08-05T17:04:27.797Z,4.13
2022-08-05T17:07:03.260Z,3.85
2022-08-05T17:09:57.736Z,4.00
2022-08-05T17:12:51.725Z,4.03
2022-08-05T17:15:15.723Z,4.20
2022-08-05T17:17:48.959Z,4.23
2022-08-05T17:20:25.090Z,4.88
2022-08-05T17:22:55.509Z,3.85
2022-08-05T17:25:40.134Z,3.83
2022-08-05T17:28:09.828Z,3.63
2022-08-05T17:30:42.335Z,3.40
2022-08-05T17:33:09.845Z,4.10
2022-08-05T17:36:08.081Z,5.18
2022-08-05T17:38:23.391Z,7.38
2022-08-05T17:40:50.040Z,5.97
2022-08-05T17:43:17.610Z,6.00
2022-08-05T17:45:44.605Z,6.25
2022-08-05T17:48:11.566Z,5.38
2022-08-05T17:50:38.574Z,6.30
2022-08-05T17:53:08.354Z,6.00
2022-08-05T17:55:37.841Z,5.73
2022-08-05T17:58:10.996Z,5.50
2022-08-05T18:00:45.274Z,6.18
2022-08-05T18:03:33.453Z,6.07
2022-08-05T18:06:06.094Z,5.38
2022-08-05T18:08:38.495Z,6.17
2022-08-05T18:11:07.668Z,5.78
2022-08-05T18:13:43.727Z,5.50
2022-08-05T18:16:13.558Z,5.35
2022-08-05T18:18:41.628Z,4.40
2022-08-05T18:21:21.314Z,4.23
2022-08-05T18:23:53.712Z,3.70
2022-08-05T18:26:29.442Z,3.65
2022-08-05T18:28:59.089Z,4.57
2022-08-05T18:31:35.231Z,4.95
2022-08-05T18:34:05.803Z,4.40
2022-08-05T18:36:35.296Z,4.88
2022-08-05T18:39:03.240Z,6.55
2022-08-05T18:41:57.878Z,5.22
2022-08-05T18:44:32.939Z,9.55
2022-08-05T18:47:01.631Z,7.40
2022-08-05T18:49:57.254Z,8.82
2022-08-05T18:52:41.406Z,4.88
2022-08-05T18:55:20.499Z,4.70
2022-08-05T18:57:53.042Z,6.68
2022-08-05T19:00:28.671Z,5.83
2022-08-05T19:02:57.591Z,5.65
2022-08-05T19:06:12.567Z,6.50
2022-08-05T19:08:22.365Z,8.43
2022-08-05T19:10:59.563Z,8.57
2022-08-05T19:13:31.404Z,5.80
2022-08-05T19:16:04.872Z,4.93
2022-08-05T19:18:52.789Z,5.63
2022-08-05T19:21:19.731Z,4.70
2022-08-05T19:24:05.484Z,3.80
2022-08-05T19:26:34.220Z,3.10
2022-08-05T19:29:01.556Z,4.65
2022-08-05T19:31:33.996Z,3.92
2022-08-05T19:34:11.729Z,3.90
2022-08-05T19:36:45.598Z,5.18
2022-08-05T19:39:14.037Z,5.30
2022-08-05T19:42:07.635Z,6.30
2022-08-05T19:44:31.679Z,4.60
2022-08-05T19:46:58.687Z,3.90
2022-08-05T19:49:25.841Z,5.07
2022-08-05T19:52:04.733Z,5.70
2022-08-05T19:54:34.799Z,4.57
2022-08-05T19:57:08.559Z,3.92
2022-08-05T19:59:56.308Z,3.58
2022-08-05T20:02:31.243Z,3.60
2022-08-05T20:04:59.794Z,5.60
2022-08-05T20:07:46.829Z,5.13
2022-08-05T20:10:17.455Z,7.13
2022-08-05T20:12:49.055Z,7.30
2022-08-05T20:15:23.246Z,7.68
2022-08-05T20:18:10.238Z,5.83
2022-08-05T20:20:56.341Z,5.63
2022-08-05T20:23:40.205Z,5.50
2022-08-05T20:26:15.351Z,4.93
2022-08-05T20:28:45.444Z,3.63
2022-08-05T20:31:12.409Z,3.40
2022-08-05T20:33:42.382Z,3.10
2022-08-05T20:36:10.100Z,3.63
2022-08-05T20:38:53.727Z,6.00
2022-08-05T20:41:26.996Z,5.35
2022-08-05T20:44:17.782Z,5.50
2022-08-05T20:46:58.070Z,5.75
2022-08-05T20:49:25.961Z,5.88
2022-08-05T20:51:54.142Z,8.93
2022-08-05T20:54:22.608Z,7.43
2022-08-05T20:56:52.585Z,5.93
2022-08-05T20:59:26.449Z,5.80
2022-08-05T21:01:57.239Z,4.82
2022-08-05T21:04:27.021Z,5.13
2022-08-05T21:06:55.037Z,5.18
2022-08-05T21:09:23.015Z,5.37
2022-08-05T21:12:08.962Z,6.13
2022-08-05T21:14:38.875Z,8.35
2022-08-05T21:17:06.061Z,7.88
2022-08-05T21:19:46.710Z,9.20
2022-08-05T21:22:17.601Z,7.73
2022-08-05T21:24:48.861Z,6.70
2022-08-05T21:27:20.515Z,8.75
2022-08-05T21:29:51.590Z,6.75
2022-08-05T21:32:20.124Z,6.32
2022-08-05T21:35:06.866Z,6.30
2022-08-05T21:37:35.091Z,7.40
2022-08-05T21:40:13.709Z,6.25
2022-08-05T21:42:45.107Z,8.68
2022-08-05T21:45:24.206Z,10.60
2022-08-05T21:48:02.517Z,12.00
2022-08-05T21:50:33.623Z,8.65
2022-08-05T21:53:04.713Z,7.88
2022-08-05T21:56:04.755Z,8.07
2022-08-05T21:58:32.035Z,10.27
2022-08-05T22:00:59.567Z,7.67
2022-08-05T22:03:48.686Z,6.47
2022-08-05T22:06:16.515Z,9.60
2022-08-05T22:08:52.130Z,7.93
2022-08-05T22:11:34.425Z,9.45
2022-08-05T22:14:19.777Z,8.87
2022-08-05T22:16:53.164Z,7.90
2022-08-05T22:20:01.621Z,6.78
2022-08-05T22:22:13.092Z,6.88
2022-08-05T22:25:00.539Z,6.43
2022-08-05T22:28:08.794Z,5.73
2022-08-05T22:30:35.332Z,6.47
2022-08-05T22:33:15.401Z,10.73
2022-08-05T22:35:48.566Z,10.40
2022-08-05T22:38:17.309Z,9.38
2022-08-05T22:40:49.509Z,7.30
2022-08-05T22:43:36.520Z,7.00
2022-08-05T22:46:13.052Z,5.78
2022-08-05T22:48:47.923Z,5.70
2022-08-05T22:51:16.009Z,5.93
2022-08-05T22:53:51.051Z,5.80
2022-08-05T22:56:30.028Z,5.15
2022-08-05T22:59:03.944Z,5.22
2022-08-05T23:02:04.337Z,6.00
2022-08-05T23:04:32.321Z,5.55
2022-08-05T23:06:59.059Z,5.97
2022-08-05T23:09:27.462Z,8.10
2022-08-05T23:12:12.676Z,6.60
2022-08-05T23:14:39.386Z,5.90
2022-08-05T23:17:32.784Z,5.63
2022-08-05T23:20:16.500Z,6.20
2022-08-05T23:22:47.577Z,5.90
2022-08-05T23:25:53.363Z,7.35
2022-08-05T23:28:05.911Z,6.30
2022-08-05T23:30:40.428Z,6.05
2022-08-05T23:33:22.345Z,5.97
2022-08-05T23:35:56.158Z,6.00
2022-08-05T23:38:24.240Z,6.25
2022-08-05T23:40:52.700Z,7.97
2022-08-05T23:43:24.857Z,8.07
2022-08-05T23:46:04.232Z,10.53
2022-08-05T23:48:31.145Z,6.57
2022-08-05T23:50:58.666Z,5.90
2022-08-05T23:53:28.382Z,7.88
2022-08-05T23:56:12.948Z,7.97
2022-08-05T23:58:46.787Z,7.77
